sensor_id;sensor_type;location;lat;lon;timestamp;pressure;altitude;pressure_sealevel;temperature
15701;BMP180;7950;42.744;23.174;2024-03-25T00:00:49;93155.09;;;5.64
15701;BMP180;7950;42.744;23.174;2024-03-25T00:03:17;93154.50;;;5.57
15701;BMP180;7950;42.744;23.174;2024-03-25T00:05:43;93146.41;;;5.48
15701;BMP180;7950;42.744;23.174;2024-03-25T00:08:11;93135.78;;;5.55
15701;BMP180;7950;42.744;23.174;2024-03-25T00:10:37;93141.41;;;5.42
15701;BMP180;7950;42.744;23.174;2024-03-25T00:13:05;93129.34;;;5.31
15701;BMP180;7950;42.744;23.174;2024-03-25T00:15:31;93123.09;;;5.27
15701;BMP180;7950;42.744;23.174;2024-03-25T00:18:02;93109.28;;;5.21
15701;BMP180;7950;42.744;23.174;2024-03-25T00:20:28;93108.00;;;5.24
15701;BMP180;7950;42.744;23.174;2024-03-25T00:22:56;93082.34;;;5.37
15701;BMP180;7950;42.744;23.174;2024-03-25T00:25:22;93083.63;;;5.35
15701;BMP180;7950;42.744;23.174;2024-03-25T00:27:50;93081.53;;;5.32
15701;BMP180;7950;42.744;23.174;2024-03-25T00:30:17;93091.75;;;5.43
15701;BMP180;7950;42.744;23.174;2024-03-25T00:32:45;93094.66;;;5.52
15701;BMP180;7950;42.744;23.174;2024-03-25T00:35:14;93104.59;;;5.55
15701;BMP180;7950;42.744;23.174;2024-03-25T00:37:41;93101.25;;;5.64
15701;BMP180;7950;42.744;23.174;2024-03-25T00:40:08;93104.56;;;5.18
15701;BMP180;7950;42.744;23.174;2024-03-25T00:42:36;93099.22;;;5.35
15701;BMP180;7950;42.744;23.174;2024-03-25T00:45:03;93087.47;;;5.27
15701;BMP180;7950;42.744;23.174;2024-03-25T00:47:32;93094.41;;;5.17
15701;BMP180;7950;42.744;23.174;2024-03-25T00:49:59;93095.50;;;5.21
15701;BMP180;7950;42.744;23.174;2024-03-25T00:52:28;93087.69;;;5.21
15701;BMP180;7950;42.744;23.174;2024-03-25T00:54:54;93077.78;;;5.18
15701;BMP180;7950;42.744;23.174;2024-03-25T00:57:22;93072.13;;;5.26
15701;BMP180;7950;42.744;23.174;2024-03-25T00:59:49;93079.97;;;5.31
15701;BMP180;7950;42.744;23.174;2024-03-25T01:02:16;93071.19;;;5.37
15701;BMP180;7950;42.744;23.174;2024-03-25T01:04:43;93069.69;;;5.46
15701;BMP180;7950;42.744;23.174;2024-03-25T01:07:10;93066.84;;;5.52
15701;BMP180;7950;42.744;23.174;2024-03-25T01:09:38;93053.66;;;5.64
15701;BMP180;7950;42.744;23.174;2024-03-25T01:12:06;93051.34;;;5.72
15701;BMP180;7950;42.744;23.174;2024-03-25T01:14:33;93049.56;;;5.78
15701;BMP180;7950;42.744;23.174;2024-03-25T01:17:00;93045.97;;;5.84
15701;BMP180;7950;42.744;23.174;2024-03-25T01:19:27;93056.63;;;5.87
15701;BMP180;7950;42.744;23.174;2024-03-25T01:21:54;93050.94;;;5.90
15701;BMP180;7950;42.744;23.174;2024-03-25T01:24:21;93043.94;;;5.96
15701;BMP180;7950;42.744;23.174;2024-03-25T01:26:50;93062.44;;;6.04
15701;BMP180;7950;42.744;23.174;2024-03-25T01:29:16;93057.78;;;6.06
15701;BMP180;7950;42.744;23.174;2024-03-25T01:31:44;93059.09;;;6.14
15701;BMP180;7950;42.744;23.174;2024-03-25T01:34:11;93064.06;;;6.15
15701;BMP180;7950;42.744;23.174;2024-03-25T01:36:38;93070.31;;;6.19
15701;BMP180;7950;42.744;23.174;2024-03-25T01:39:05;93067.97;;;6.18
15701;BMP180;7950;42.744;23.174;2024-03-25T01:41:34;93074.22;;;6.17
15701;BMP180;7950;42.744;23.174;2024-03-25T01:44:02;93083.31;;;6.14
15701;BMP180;7950;42.744;23.174;2024-03-25T01:46:30;93088.47;;;6.04
15701;BMP180;7950;42.744;23.174;2024-03-25T01:48:58;93088.59;;;5.78
15701;BMP180;7950;42.744;23.174;2024-03-25T01:51:25;93099.94;;;5.62
15701;BMP180;7950;42.744;23.174;2024-03-25T01:53:54;93098.81;;;5.53
15701;BMP180;7950;42.744;23.174;2024-03-25T01:56:23;93107.41;;;5.48
15701;BMP180;7950;42.744;23.174;2024-03-25T01:58:51;93109.72;;;5.50
15701;BMP180;7950;42.744;23.174;2024-03-25T02:01:20;93095.94;;;5.49
15701;BMP180;7950;42.744;23.174;2024-03-25T02:03:48;93106.22;;;5.34
15701;BMP180;7950;42.744;23.174;2024-03-25T02:06:17;93111.19;;;5.36
15701;BMP180;7950;42.744;23.174;2024-03-25T02:08:45;93100.78;;;5.36
15701;BMP180;7950;42.744;23.174;2024-03-25T02:11:13;93100.06;;;5.40
15701;BMP180;7950;42.744;23.174;2024-03-25T02:13:41;93104.47;;;5.40
15701;BMP180;7950;42.744;23.174;2024-03-25T02:16:07;93094.81;;;5.35
15701;BMP180;7950;42.744;23.174;2024-03-25T02:18:37;93093.56;;;5.43
15701;BMP180;7950;42.744;23.174;2024-03-25T02:21:04;93088.59;;;5.36
15701;BMP180;7950;42.744;23.174;2024-03-25T02:23:33;93089.41;;;5.42
15701;BMP180;7950;42.744;23.174;2024-03-25T02:26:02;93089.47;;;5.52
15701;BMP180;7950;42.744;23.174;2024-03-25T02:28:29;93094.44;;;5.58
15701;BMP180;7950;42.744;23.174;2024-03-25T02:30:56;93102.81;;;5.65
15701;BMP180;7950;42.744;23.174;2024-03-25T02:33:23;93101.56;;;5.73
15701;BMP180;7950;42.744;23.174;2024-03-25T02:35:50;93109.38;;;5.73
15701;BMP180;7950;42.744;23.174;2024-03-25T02:38:17;93095.53;;;5.67
15701;BMP180;7950;42.744;23.174;2024-03-25T02:40:45;93099.91;;;5.57
15701;BMP180;7950;42.744;23.174;2024-03-25T02:43:14;93105.66;;;5.59
15701;BMP180;7950;42.744;23.174;2024-03-25T02:45:41;93099.38;;;5.55
15701;BMP180;7950;42.744;23.174;2024-03-25T02:48:09;93107.19;;;5.55
15701;BMP180;7950;42.744;23.174;2024-03-25T02:50:35;93112.84;;;5.47
15701;BMP180;7950;42.744;23.174;2024-03-25T02:53:03;93123.72;;;5.44
15701;BMP180;7950;42.744;23.174;2024-03-25T02:55:29;93128.41;;;5.42
15701;BMP180;7950;42.744;23.174;2024-03-25T02:57:57;93127.78;;;5.30
15701;BMP180;7950;42.744;23.174;2024-03-25T03:00:25;93125.72;;;5.32
15701;BMP180;7950;42.744;23.174;2024-03-25T03:02:53;93116.94;;;5.38
15701;BMP180;7950;42.744;23.174;2024-03-25T03:05:19;93119.75;;;5.31
15701;BMP180;7950;42.744;23.174;2024-03-25T03:07:47;93124.44;;;5.34
15701;BMP180;7950;42.744;23.174;2024-03-25T03:10:13;93120.81;;;5.35
15701;BMP180;7950;42.744;23.174;2024-03-25T03:12:42;93126.53;;;5.37
15701;BMP180;7950;42.744;23.174;2024-03-25T03:15:09;93113.81;;;5.41
15701;BMP180;7950;42.744;23.174;2024-03-25T03:17:38;93115.41;;;5.42
15701;BMP180;7950;42.744;23.174;2024-03-25T03:20:06;93116.94;;;5.38
15701;BMP180;7950;42.744;23.174;2024-03-25T03:22:35;93125.81;;;5.42
15701;BMP180;7950;42.744;23.174;2024-03-25T03:25:01;93132.59;;;5.16
15701;BMP180;7950;42.744;23.174;2024-03-25T03:27:30;93140.38;;;5.11
15701;BMP180;7950;42.744;23.174;2024-03-25T03:29:56;93151.34;;;5.18
15701;BMP180;7950;42.744;23.174;2024-03-25T03:32:24;93152.63;;;5.16
15701;BMP180;7950;42.744;23.174;2024-03-25T03:34:52;93152.69;;;5.21
15701;BMP180;7950;42.744;23.174;2024-03-25T03:37:19;93160.47;;;5.21
15701;BMP180;7950;42.744;23.174;2024-03-25T03:39:46;93168.50;;;5.19
15701;BMP180;7950;42.744;23.174;2024-03-25T03:42:13;93168.28;;;5.21
15701;BMP180;7950;42.744;23.174;2024-03-25T03:44:40;93176.94;;;5.31
15701;BMP180;7950;42.744;23.174;2024-03-25T03:47:07;93173.28;;;5.27
15701;BMP180;7950;42.744;23.174;2024-03-25T03:49:34;93172.69;;;5.20
15701;BMP180;7950;42.744;23.174;2024-03-25T03:52:03;93170.63;;;5.22
15701;BMP180;7950;42.744;23.174;2024-03-25T03:54:30;93159.84;;;5.09
15701;BMP180;7950;42.744;23.174;2024-03-25T03:56:57;93166.44;;;4.90
15701;BMP180;7950;42.744;23.174;2024-03-25T03:59:24;93165.81;;;4.83
15701;BMP180;7950;42.744;23.174;2024-03-25T04:01:51;93170.88;;;4.94
15701;BMP180;7950;42.744;23.174;2024-03-25T04:04:18;93191.59;;;5.11
15701;BMP180;7950;42.744;23.174;2024-03-25T04:06:45;93186.78;;;4.98
15701;BMP180;7950;42.744;23.174;2024-03-25T04:09:13;93193.06;;;5.02
15701;BMP180;7950;42.744;23.174;2024-03-25T04:11:40;93192.41;;;4.90
15701;BMP180;7950;42.744;23.174;2024-03-25T04:14:07;93191.28;;;4.81
15701;BMP180;7950;42.744;23.174;2024-03-25T04:16:34;93194.53;;;4.93
15701;BMP180;7950;42.744;23.174;2024-03-25T04:19:01;93202.50;;;5.13
15701;BMP180;7950;42.744;23.174;2024-03-25T04:21:28;93214.50;;;5.19
15701;BMP180;7950;42.744;23.174;2024-03-25T04:23:56;93207.94;;;5.11
15701;BMP180;7950;42.744;23.174;2024-03-25T04:26:25;93205.34;;;5.11
15701;BMP180;7950;42.744;23.174;2024-03-25T04:28:51;93218.81;;;5.35
15701;BMP180;7950;42.744;23.174;2024-03-25T04:31:19;93195.72;;;5.38
15701;BMP180;7950;42.744;23.174;2024-03-25T04:33:45;93206.19;;;5.43
15701;BMP180;7950;42.744;23.174;2024-03-25T04:36:13;93229.63;;;5.22
15701;BMP180;7950;42.744;23.174;2024-03-25T04:38:39;93244.50;;;5.26
15701;BMP180;7950;42.744;23.174;2024-03-25T04:41:05;93251.69;;;5.19
15701;BMP180;7950;42.744;23.174;2024-03-25T04:43:33;93264.44;;;5.21
15701;BMP180;7950;42.744;23.174;2024-03-25T04:46:01;93252.81;;;5.02
15701;BMP180;7950;42.744;23.174;2024-03-25T04:48:27;93260.63;;;5.02
15701;BMP180;7950;42.744;23.174;2024-03-25T04:50:54;93263.25;;;5.07
15701;BMP180;7950;42.744;23.174;2024-03-25T04:53:21;93265.34;;;5.10
15701;BMP180;7950;42.744;23.174;2024-03-25T04:55:47;93263.97;;;5.02
15701;BMP180;7950;42.744;23.174;2024-03-25T04:58:14;93258.03;;;5.02
15701;BMP180;7950;42.744;23.174;2024-03-25T05:00:42;93258.06;;;5.07
15701;BMP180;7950;42.744;23.174;2024-03-25T05:03:08;93260.66;;;5.07
15701;BMP180;7950;42.744;23.174;2024-03-25T05:05:35;93262.41;;;5.01
15701;BMP180;7950;42.744;23.174;2024-03-25T05:08:01;93261.81;;;5.16
15701;BMP180;7950;42.744;23.174;2024-03-25T05:10:28;93251.50;;;5.26
15701;BMP180;7950;42.744;23.174;2024-03-25T05:12:55;93252.59;;;5.30
15701;BMP180;7950;42.744;23.174;2024-03-25T05:15:21;93260.13;;;5.31
15701;BMP180;7950;42.744;23.174;2024-03-25T05:17:49;93258.25;;;5.27
15701;BMP180;7950;42.744;23.174;2024-03-25T05:20:16;93254.44;;;5.08
15701;BMP180;7950;42.744;23.174;2024-03-25T05:22:42;93263.88;;;5.19
15701;BMP180;7950;42.744;23.174;2024-03-25T05:25:09;93261.28;;;5.19
15701;BMP180;7950;42.744;23.174;2024-03-25T05:27:36;93263.50;;;5.32
15701;BMP180;7950;42.744;23.174;2024-03-25T05:30:03;93269.25;;;5.34
15701;BMP180;7950;42.744;23.174;2024-03-25T05:32:29;93278.75;;;5.50
15701;BMP180;7950;42.744;23.174;2024-03-25T05:34:57;93277.00;;;5.55
15701;BMP180;7950;42.744;23.174;2024-03-25T05:37:24;93279.84;;;5.54
15701;BMP180;7950;42.744;23.174;2024-03-25T05:39:51;93295.03;;;5.67
15701;BMP180;7950;42.744;23.174;2024-03-25T05:42:17;93285.03;;;5.54
15701;BMP180;7950;42.744;23.174;2024-03-25T05:44:45;93302.31;;;5.65
15701;BMP180;7950;42.744;23.174;2024-03-25T05:47:14;93303.59;;;5.62
15701;BMP180;7950;42.744;23.174;2024-03-25T05:49:41;93301.25;;;5.61
15701;BMP180;7950;42.744;23.174;2024-03-25T05:52:09;93305.25;;;6.00
15701;BMP180;7950;42.744;23.174;2024-03-25T05:54:35;93312.78;;;5.96
15701;BMP180;7950;42.744;23.174;2024-03-25T05:57:02;93314.66;;;6.06
15701;BMP180;7950;42.744;23.174;2024-03-25T05:59:30;93305.41;;;6.20
15701;BMP180;7950;42.744;23.174;2024-03-25T06:01:56;93311.34;;;6.10
15701;BMP180;7950;42.744;23.174;2024-03-25T06:04:23;93328.03;;;6.14
15701;BMP180;7950;42.744;23.174;2024-03-25T06:06:49;93327.03;;;6.20
15701;BMP180;7950;42.744;23.174;2024-03-25T06:09:17;93326.31;;;6.30
15701;BMP180;7950;42.744;23.174;2024-03-25T06:11:44;93328.81;;;6.51
15701;BMP180;7950;42.744;23.174;2024-03-25T06:14:10;93335.59;;;6.57
15701;BMP180;7950;42.744;23.174;2024-03-25T06:16:37;93329.59;;;6.52
15701;BMP180;7950;42.744;23.174;2024-03-25T06:19:03;93324.88;;;6.49
15701;BMP180;7950;42.744;23.174;2024-03-25T06:21:30;93333.16;;;6.41
15701;BMP180;7950;42.744;23.174;2024-03-25T06:23:56;93335.94;;;6.66
15701;BMP180;7950;42.744;23.174;2024-03-25T06:26:24;93338.56;;;6.71
15701;BMP180;7950;42.744;23.174;2024-03-25T06:28:51;93344.38;;;6.83
15701;BMP180;7950;42.744;23.174;2024-03-25T06:31:17;93344.06;;;6.79
15701;BMP180;7950;42.744;23.174;2024-03-25T06:34:02;93351.59;;;6.71
15701;BMP180;7950;42.744;23.174;2024-03-25T06:36:41;93350.09;;;6.80
15701;BMP180;7950;42.744;23.174;2024-03-25T06:39:08;93352.78;;;7.00
15701;BMP180;7950;42.744;23.174;2024-03-25T06:41:36;93357.88;;;7.26
15701;BMP180;7950;42.744;23.174;2024-03-25T06:44:02;93356.59;;;7.34
15701;BMP180;7950;42.744;23.174;2024-03-25T06:46:29;93372.03;;;7.50
15701;BMP180;7950;42.744;23.174;2024-03-25T06:48:56;93372.34;;;7.59
15701;BMP180;7950;42.744;23.174;2024-03-25T06:51:22;93373.97;;;7.80
15701;BMP180;7950;42.744;23.174;2024-03-25T06:53:49;93370.88;;;7.93
15701;BMP180;7950;42.744;23.174;2024-03-25T06:56:16;93387.31;;;7.98
15701;BMP180;7950;42.744;23.174;2024-03-25T06:58:44;93378.72;;;8.13
15701;BMP180;7950;42.744;23.174;2024-03-25T07:01:11;93396.50;;;8.11
15701;BMP180;7950;42.744;23.174;2024-03-25T07:03:38;93391.25;;;8.06
15701;BMP180;7950;42.744;23.174;2024-03-25T07:06:05;93391.28;;;8.16
15701;BMP180;7950;42.744;23.174;2024-03-25T07:08:32;93400.16;;;8.15
15701;BMP180;7950;42.744;23.174;2024-03-25T07:10:59;93401.25;;;8.24
15701;BMP180;7950;42.744;23.174;2024-03-25T07:13:26;93406.22;;;8.30
15701;BMP180;7950;42.744;23.174;2024-03-25T07:15:54;93408.53;;;8.32
15701;BMP180;7950;42.744;23.174;2024-03-25T07:18:20;93416.63;;;8.20
15701;BMP180;7950;42.744;23.174;2024-03-25T07:20:47;93416.84;;;8.04
15701;BMP180;7950;42.744;23.174;2024-03-25T07:23:14;93411.38;;;8.15
15701;BMP180;7950;42.744;23.174;2024-03-25T07:25:40;93427.03;;;8.05
15701;BMP180;7950;42.744;23.174;2024-03-25T07:28:07;93419.53;;;8.24
15701;BMP180;7950;42.744;23.174;2024-03-25T07:30:34;93425.00;;;8.42
15701;BMP180;7950;42.744;23.174;2024-03-25T07:33:02;93418.47;;;8.45
15701;BMP180;7950;42.744;23.174;2024-03-25T07:35:28;93416.91;;;8.24
15701;BMP180;7950;42.744;23.174;2024-03-25T07:37:55;93416.66;;;8.40
15701;BMP180;7950;42.744;23.174;2024-03-25T07:40:22;93428.16;;;8.69
15701;BMP180;7950;42.744;23.174;2024-03-25T07:42:49;93420.31;;;8.59
15701;BMP180;7950;42.744;23.174;2024-03-25T07:45:16;93421.09;;;8.45
15701;BMP180;7950;42.744;23.174;2024-03-25T07:47:43;93421.34;;;8.28
15701;BMP180;7950;42.744;23.174;2024-03-25T07:50:11;93430.78;;;8.39
15701;BMP180;7950;42.744;23.174;2024-03-25T07:52:37;93421.88;;;8.60
15701;BMP180;7950;42.744;23.174;2024-03-25T07:55:05;93429.47;;;8.92
15701;BMP180;7950;42.744;23.174;2024-03-25T07:57:32;93428.44;;;8.88
15701;BMP180;7950;42.744;23.174;2024-03-25T07:59:58;93434.69;;;9.17
15701;BMP180;7950;42.744;23.174;2024-03-25T08:02:25;93440.94;;;9.26
15701;BMP180;7950;42.744;23.174;2024-03-25T08:04:52;93438.34;;;9.21
15701;BMP180;7950;42.744;23.174;2024-03-25T08:07:20;93445.41;;;9.11
15701;BMP180;7950;42.744;23.174;2024-03-25T08:09:46;93449.06;;;9.25
15701;BMP180;7950;42.744;23.174;2024-03-25T08:12:13;93461.34;;;9.14
15701;BMP180;7950;42.744;23.174;2024-03-25T08:14:40;93453.53;;;8.79
15701;BMP180;7950;42.744;23.174;2024-03-25T08:17:06;93462.38;;;8.33
15701;BMP180;7950;42.744;23.174;2024-03-25T08:19:33;93459.00;;;8.42
15701;BMP180;7950;42.744;23.174;2024-03-25T08:22:00;93462.44;;;8.68
15701;BMP180;7950;42.744;23.174;2024-03-25T08:24:28;93456.94;;;8.89
15701;BMP180;7950;42.744;23.174;2024-03-25T08:26:54;93466.88;;;8.93
15701;BMP180;7950;42.744;23.174;2024-03-25T08:29:21;93462.94;;;8.85
15701;BMP180;7950;42.744;23.174;2024-03-25T08:31:48;93465.31;;;8.66
15701;BMP180;7950;42.744;23.174;2024-03-25T08:34:14;93478.88;;;8.78
15701;BMP180;7950;42.744;23.174;2024-03-25T08:36:41;93484.38;;;8.72
15701;BMP180;7950;42.744;23.174;2024-03-25T08:39:08;93472.31;;;8.36
15701;BMP180;7950;42.744;23.174;2024-03-25T08:41:36;93479.63;;;8.44
15701;BMP180;7950;42.744;23.174;2024-03-25T08:44:03;93470.47;;;8.21
15701;BMP180;7950;42.744;23.174;2024-03-25T08:46:29;93464.47;;;8.36
15701;BMP180;7950;42.744;23.174;2024-03-25T08:48:55;93478.06;;;8.43
15701;BMP180;7950;42.744;23.174;2024-03-25T08:51:22;93466.59;;;8.64
15701;BMP180;7950;42.744;23.174;2024-03-25T08:53:49;93470.25;;;8.58
15701;BMP180;7950;42.744;23.174;2024-03-25T08:56:15;93465.56;;;8.65
15701;BMP180;7950;42.744;23.174;2024-03-25T08:58:43;93466.59;;;8.69
15701;BMP180;7950;42.744;23.174;2024-03-25T09:01:10;93470.28;;;8.73
15701;BMP180;7950;42.744;23.174;2024-03-25T09:03:37;93465.56;;;8.80
15701;BMP180;7950;42.744;23.174;2024-03-25T09:06:04;93473.41;;;8.65
15701;BMP180;7950;42.744;23.174;2024-03-25T09:08:30;93475.47;;;8.58
15701;BMP180;7950;42.744;23.174;2024-03-25T09:10:57;93482.28;;;8.59
15701;BMP180;7950;42.744;23.174;2024-03-25T09:13:30;93480.44;;;8.64
15701;BMP180;7950;42.744;23.174;2024-03-25T09:15:58;93478.63;;;8.65
15701;BMP180;7950;42.744;23.174;2024-03-25T09:18:25;93478.63;;;8.60
15701;BMP180;7950;42.744;23.174;2024-03-25T09:20:51;93482.28;;;8.69
15701;BMP180;7950;42.744;23.174;2024-03-25T09:23:18;93483.34;;;8.68
15701;BMP180;7950;42.744;23.174;2024-03-25T09:25:54;93485.41;;;8.51
15701;BMP180;7950;42.744;23.174;2024-03-25T09:28:20;93480.44;;;8.54
15701;BMP180;7950;42.744;23.174;2024-03-25T09:30:48;93490.66;;;8.61
15701;BMP180;7950;42.744;23.174;2024-03-25T09:33:16;93493.78;;;8.63
15701;BMP180;7950;42.744;23.174;2024-03-25T09:35:43;93495.88;;;8.76
15701;BMP180;7950;42.744;23.174;2024-03-25T09:38:09;93486.22;;;8.61
15701;BMP180;7950;42.744;23.174;2024-03-25T09:40:40;93488.03;;;8.66
15701;BMP180;7950;42.744;23.174;2024-03-25T09:43:16;93486.72;;;8.78
15701;BMP180;7950;42.744;23.174;2024-03-25T09:45:48;93486.47;;;8.75
15701;BMP180;7950;42.744;23.174;2024-03-25T09:48:21;93474.44;;;8.69
15701;BMP180;7950;42.744;23.174;2024-03-25T09:50:50;93478.34;;;8.56
15701;BMP180;7950;42.744;23.174;2024-03-25T09:53:18;93476.28;;;8.63
15701;BMP180;7950;42.744;23.174;2024-03-25T09:55:47;93479.13;;;8.67
15701;BMP180;7950;42.744;23.174;2024-03-25T09:58:15;93477.06;;;8.59
15701;BMP180;7950;42.744;23.174;2024-03-25T10:00:44;93476.56;;;8.77
15701;BMP180;7950;42.744;23.174;2024-03-25T10:03:11;93483.84;;;8.85
15701;BMP180;7950;42.744;23.174;2024-03-25T10:05:39;93478.63;;;9.05
15701;BMP180;7950;42.744;23.174;2024-03-25T10:08:06;93477.03;;;9.19
15701;BMP180;7950;42.744;23.174;2024-03-25T10:10:34;93477.56;;;9.06
15701;BMP180;7950;42.744;23.174;2024-03-25T10:13:00;93483.31;;;9.23
15701;BMP180;7950;42.744;23.174;2024-03-25T10:15:27;93460.28;;;9.25
15701;BMP180;7950;42.744;23.174;2024-03-25T10:17:54;93487.78;;;9.28
15701;BMP180;7950;42.744;23.174;2024-03-25T10:20:21;93475.94;;;9.55
15701;BMP180;7950;42.744;23.174;2024-03-25T10:22:49;93472.69;;;9.88
15701;BMP180;7950;42.744;23.174;2024-03-25T10:25:23;93464.25;;;10.06
15701;BMP180;7950;42.744;23.174;2024-03-25T10:27:55;93470.50;;;10.15
15701;BMP180;7950;42.744;23.174;2024-03-25T10:30:22;93473.91;;;10.21
15701;BMP180;7950;42.744;23.174;2024-03-25T10:32:59;93475.00;;;10.58
15701;BMP180;7950;42.744;23.174;2024-03-25T10:35:31;93469.25;;;10.51
15701;BMP180;7950;42.744;23.174;2024-03-25T10:38:02;93462.31;;;10.70
15701;BMP180;7950;42.744;23.174;2024-03-25T10:40:31;93473.13;;;10.97
15701;BMP180;7950;42.744;23.174;2024-03-25T10:43:02;93479.56;;;10.81
15701;BMP180;7950;42.744;23.174;2024-03-25T10:45:34;93486.25;;;10.59
15701;BMP180;7950;42.744;23.174;2024-03-25T10:48:09;93485.97;;;10.17
15701;BMP180;7950;42.744;23.174;2024-03-25T10:50:38;93488.00;;;10.30
15701;BMP180;7950;42.744;23.174;2024-03-25T10:53:10;93477.47;;;10.40
15701;BMP180;7950;42.744;23.174;2024-03-25T10:55:37;93480.47;;;10.62
15701;BMP180;7950;42.744;23.174;2024-03-25T10:58:04;93488.53;;;10.70
15701;BMP180;7950;42.744;23.174;2024-03-25T11:00:32;93477.31;;;10.98
15701;BMP180;7950;42.744;23.174;2024-03-25T11:03:00;93485.19;;;10.98
15701;BMP180;7950;42.744;23.174;2024-03-25T11:05:28;93496.97;;;10.67
15701;BMP180;7950;42.744;23.174;2024-03-25T11:07:55;93485.31;;;10.40
15701;BMP180;7950;42.744;23.174;2024-03-25T11:10:30;93495.16;;;10.04
15701;BMP180;7950;42.744;23.174;2024-03-25T11:12:57;93498.16;;;9.63
15701;BMP180;7950;42.744;23.174;2024-03-25T11:15:24;93506.88;;;9.18
15701;BMP180;7950;42.744;23.174;2024-03-25T11:17:51;93500.06;;;9.07
15701;BMP180;7950;42.744;23.174;2024-03-25T11:20:18;93508.19;;;8.85
15701;BMP180;7950;42.744;23.174;2024-03-25T11:22:48;93510.53;;;8.92
15701;BMP180;7950;42.744;23.174;2024-03-25T11:25:16;93506.88;;;9.03
15701;BMP180;7950;42.744;23.174;2024-03-25T11:27:45;93502.66;;;9.37
15701;BMP180;7950;42.744;23.174;2024-03-25T11:30:13;93483.22;;;9.68
15701;BMP180;7950;42.744;23.174;2024-03-25T11:32:51;93494.75;;;9.72
15701;BMP180;7950;42.744;23.174;2024-03-25T11:35:18;93512.97;;;10.02
15701;BMP180;7950;42.744;23.174;2024-03-25T11:37:45;93487.84;;;10.06
15701;BMP180;7950;42.744;23.174;2024-03-25T11:40:14;93510.03;;;10.24
15701;BMP180;7950;42.744;23.174;2024-03-25T11:42:42;93505.00;;;10.37
15701;BMP180;7950;42.744;23.174;2024-03-25T11:45:15;93507.97;;;10.64
15701;BMP180;7950;42.744;23.174;2024-03-25T11:47:43;93510.69;;;10.93
15701;BMP180;7950;42.744;23.174;2024-03-25T11:50:12;93507.31;;;10.87
15701;BMP180;7950;42.744;23.174;2024-03-25T11:52:39;93506.66;;;10.67
15701;BMP180;7950;42.744;23.174;2024-03-25T11:55:07;93501.34;;;10.33
15701;BMP180;7950;42.744;23.174;2024-03-25T11:57:35;93516.97;;;10.48
15701;BMP180;7950;42.744;23.174;2024-03-25T12:00:03;93517.75;;;10.54
15701;BMP180;7950;42.744;23.174;2024-03-25T12:02:32;93507.78;;;10.56
15701;BMP180;7950;42.744;23.174;2024-03-25T12:04:58;93517.69;;;10.64
15701;BMP180;7950;42.744;23.174;2024-03-25T12:07:25;93508.47;;;10.66
15701;BMP180;7950;42.744;23.174;2024-03-25T12:09:52;93507.84;;;10.84
15701;BMP180;7950;42.744;23.174;2024-03-25T12:12:36;93507.72;;;10.66
15701;BMP180;7950;42.744;23.174;2024-03-25T12:15:04;93508.78;;;10.60
15701;BMP180;7950;42.744;23.174;2024-03-25T12:17:33;93498.53;;;10.68
15701;BMP180;7950;42.744;23.174;2024-03-25T12:20:04;93510.06;;;10.67
15701;BMP180;7950;42.744;23.174;2024-03-25T12:22:31;93497.31;;;10.56
15701;BMP180;7950;42.744;23.174;2024-03-25T12:24:59;93485.09;;;10.75
15701;BMP180;7950;42.744;23.174;2024-03-25T12:27:28;93482.13;;;10.86
15701;BMP180;7950;42.744;23.174;2024-03-25T12:29:59;93485.59;;;11.15
15701;BMP180;7950;42.744;23.174;2024-03-25T12:32:38;93488.63;;;11.27
15701;BMP180;7950;42.744;23.174;2024-03-25T12:35:09;93491.34;;;11.17
15701;BMP180;7950;42.744;23.174;2024-03-25T12:37:37;93490.78;;;11.20
15701;BMP180;7950;42.744;23.174;2024-03-25T12:40:07;93513.00;;;10.99
15701;BMP180;7950;42.744;23.174;2024-03-25T12:42:36;93506.38;;;11.07
15701;BMP180;7950;42.744;23.174;2024-03-25T12:45:03;93512.50;;;10.92
15701;BMP180;7950;42.744;23.174;2024-03-25T12:47:30;93496.41;;;10.70
15701;BMP180;7950;42.744;23.174;2024-03-25T12:49:58;93496.56;;;10.45
15701;BMP180;7950;42.744;23.174;2024-03-25T12:52:25;93488.97;;;10.44
15701;BMP180;7950;42.744;23.174;2024-03-25T12:54:52;93491.78;;;10.52
15701;BMP180;7950;42.744;23.174;2024-03-25T12:57:18;93483.84;;;10.67
15701;BMP180;7950;42.744;23.174;2024-03-25T12:59:45;93479.94;;;10.98
15701;BMP180;7950;42.744;23.174;2024-03-25T13:02:12;93496.09;;;11.15
15701;BMP180;7950;42.744;23.174;2024-03-25T13:04:40;93493.31;;;11.30
15701;BMP180;7950;42.744;23.174;2024-03-25T13:07:08;93488.50;;;11.42
15701;BMP180;7950;42.744;23.174;2024-03-25T13:09:35;93475.75;;;11.54
15701;BMP180;7950;42.744;23.174;2024-03-25T13:12:02;93478.63;;;11.58
15701;BMP180;7950;42.744;23.174;2024-03-25T13:14:29;93472.59;;;11.57
15701;BMP180;7950;42.744;23.174;2024-03-25T13:16:56;93479.72;;;11.52
15701;BMP180;7950;42.744;23.174;2024-03-25T13:19:23;93485.88;;;11.42
15701;BMP180;7950;42.744;23.174;2024-03-25T13:21:49;93476.19;;;11.38
15701;BMP180;7950;42.744;23.174;2024-03-25T13:24:17;93490.28;;;11.47
15701;BMP180;7950;42.744;23.174;2024-03-25T13:26:44;93484.81;;;11.43
15701;BMP180;7950;42.744;23.174;2024-03-25T13:29:10;93488.50;;;11.42
15701;BMP180;7950;42.744;23.174;2024-03-25T13:31:37;93478.91;;;11.28
15701;BMP180;7950;42.744;23.174;2024-03-25T13:34:04;93484.22;;;11.51
15701;BMP180;7950;42.744;23.174;2024-03-25T13:36:31;93489.84;;;11.35
15701;BMP180;7950;42.744;23.174;2024-03-25T13:38:58;93511.00;;;11.48
15701;BMP180;7950;42.744;23.174;2024-03-25T13:41:26;93515.66;;;11.61
15701;BMP180;7950;42.744;23.174;2024-03-25T13:43:52;93529.00;;;11.65
15701;BMP180;7950;42.744;23.174;2024-03-25T13:46:19;93559.50;;;11.61
15701;BMP180;7950;42.744;23.174;2024-03-25T13:48:47;93551.97;;;11.16
15701;BMP180;7950;42.744;23.174;2024-03-25T13:51:14;93568.56;;;10.63
15701;BMP180;7950;42.744;23.174;2024-03-25T13:53:41;93564.69;;;10.55
15701;BMP180;7950;42.744;23.174;2024-03-25T13:56:08;93573.63;;;10.44
15701;BMP180;7950;42.744;23.174;2024-03-25T13:58:36;93565.22;;;10.47
15701;BMP180;7950;42.744;23.174;2024-03-25T14:01:03;93564.16;;;10.58
15701;BMP180;7950;42.744;23.174;2024-03-25T14:03:29;93582.22;;;10.60
15701;BMP180;7950;42.744;23.174;2024-03-25T14:05:56;93583.06;;;10.50
15701;BMP180;7950;42.744;23.174;2024-03-25T14:08:22;93594.63;;;10.39
15701;BMP180;7950;42.744;23.174;2024-03-25T14:10:57;93597.56;;;10.28
15701;BMP180;7950;42.744;23.174;2024-03-25T14:13:25;93596.22;;;10.35
15701;BMP180;7950;42.744;23.174;2024-03-25T14:15:53;93588.84;;;10.47
15701;BMP180;7950;42.744;23.174;2024-03-25T14:18:20;93573.81;;;10.63
15701;BMP180;7950;42.744;23.174;2024-03-25T14:20:46;93571.94;;;10.68